Time;durP1;ratioP1;P1;durP2;ratioP2;P2;SDS_P1;SDS_P2;PMS_P1;PMS_P2;Temp;Humidity;BMP_temperature;BMP_pressure;BME280_temperature;BME280_humidity;BME280_pressure;Samples;Min_cycle;Max_cycle;Signal;HPM_P1;HPM_P2
2024/01/26 00:01:09;;;;;;;7.50;3.40;;;;;;;3.14;100.00;98495.92;106803;1260;58950;-79
2024/01/26 00:03:43;;;;;;;6.50;3.00;;;;;;;2.91;100.00;98484.44;106636;1260;73047;-79
2024/01/26 00:06:10;;;;;;;4.00;2.30;;;;;;;2.81;100.00;98490.85;108925;1256;58217;-79
2024/01/26 00:08:36;;;;;;;3.80;2.10;;;;;;;2.71;100.00;98492.86;109114;1256;57935;-79
2024/01/26 00:11:03;;;;;;;6.70;3.00;;;;;;;2.67;100.00;98485.33;108031;1257;59009;-79
2024/01/26 00:13:29;;;;;;;6.10;3.10;;;;;;;2.65;100.00;98487.64;106790;1256;68974;-79
2024/01/26 00:15:56;;;;;;;7.70;3.50;;;;;;;2.56;100.00;98512.36;106731;1256;71525;-79
2024/01/26 00:18:22;;;;;;;5.20;3.30;;;;;;;2.44;100.00;98530.77;106685;1257;60315;-79
2024/01/26 00:20:49;;;;;;;6.80;2.50;;;;;;;2.28;100.00;98537.87;106743;1256;59977;-79
2024/01/26 00:23:15;;;;;;;5.40;2.40;;;;;;;2.26;100.00;98534.55;106776;1260;60437;-79
2024/01/26 00:25:41;;;;;;;5.90;2.70;;;;;;;2.22;100.00;98538.57;106728;1260;60458;-79
2024/01/26 00:28:08;;;;;;;13.00;4.70;;;;;;;2.22;100.00;98524.20;106678;1256;61322;-79
2024/01/26 00:30:34;;;;;;;7.20;4.20;;;;;;;2.24;100.00;98535.64;106644;1256;59328;-79
2024/01/26 00:33:01;;;;;;;7.60;2.70;;;;;;;2.24;100.00;98540.45;106742;1256;60423;-79
2024/01/26 00:35:28;;;;;;;7.40;4.10;;;;;;;2.22;100.00;98543.13;106676;1256;60119;-79
2024/01/26 00:37:55;;;;;;;7.40;4.30;;;;;;;2.21;100.00;98543.71;106740;1256;70206;-79
2024/01/26 00:40:21;;;;;;;7.50;3.80;;;;;;;2.20;100.00;98547.04;106712;1260;72360;-79
2024/01/26 00:42:48;;;;;;;7.50;3.80;;;;;;;2.22;100.00;98547.69;106733;1256;60508;-79
2024/01/26 00:45:14;;;;;;;7.40;4.50;;;;;;;2.26;100.00;98549.98;106673;1256;59974;-79
2024/01/26 00:47:41;;;;;;;8.00;3.80;;;;;;;2.29;100.00;98553.83;106711;1256;61082;-79
2024/01/26 00:50:08;;;;;;;9.50;5.10;;;;;;;2.34;100.00;98547.23;106721;1257;70876;-79
2024/01/26 00:52:34;;;;;;;34.70;13.80;;;;;;;2.39;100.00;98549.20;108738;1256;70459;-79
2024/01/26 00:55:01;;;;;;;24.60;11.20;;;;;;;2.45;100.00;98548.84;109020;1256;58170;-79
2024/01/26 00:57:28;;;;;;;16.60;8.10;;;;;;;2.49;100.00;98550.23;109111;1256;61182;-79
2024/01/26 00:59:55;;;;;;;17.80;11.20;;;;;;;2.55;100.00;98552.82;109139;1256;72918;-79
2024/01/26 01:02:22;;;;;;;11.70;7.40;;;;;;;2.60;100.00;98553.59;109117;1256;70721;-80
2024/01/26 01:04:48;;;;;;;7.90;3.80;;;;;;;2.64;100.00;98552.61;109109;1256;70408;-79
2024/01/26 01:07:15;;;;;;;8.90;5.40;;;;;;;2.67;100.00;98553.95;107569;1257;61263;-79
2024/01/26 01:09:41;;;;;;;8.00;4.70;;;;;;;2.70;100.00;98555.09;106551;1256;60853;-80
2024/01/26 01:12:08;;;;;;;9.90;5.60;;;;;;;2.72;100.00;98555.55;106759;1260;73479;-79
2024/01/26 01:14:36;;;;;;;7.60;5.60;;;;;;;2.77;100.00;98553.35;106727;1256;61186;-79
2024/01/26 01:17:06;;;;;;;14.30;4.90;;;;;;;2.78;100.00;98556.99;106740;1260;72614;-79
2024/01/26 01:19:32;;;;;;;9.50;4.50;;;;;;;2.80;100.00;98556.36;106784;1257;60021;-79
2024/01/26 01:21:58;;;;;;;9.30;4.30;;;;;;;2.86;100.00;98557.77;106786;1262;59881;-80
2024/01/26 01:24:25;;;;;;;13.30;4.60;;;;;;;2.89;100.00;98556.70;106759;1260;60436;-79
2024/01/26 01:26:52;;;;;;;16.00;5.00;;;;;;;2.91;100.00;98561.20;106713;1258;70670;-80
2024/01/26 01:29:18;;;;;;;15.10;4.70;;;;;;;2.97;100.00;98556.90;106698;1256;61259;-79
2024/01/26 01:31:45;;;;;;;12.50;4.70;;;;;;;3.03;100.00;98555.70;106787;1260;60533;-80
2024/01/26 01:34:11;;;;;;;11.50;4.00;;;;;;;3.08;100.00;98554.80;106782;1260;60375;-80
2024/01/26 01:36:37;;;;;;;7.10;3.60;;;;;;;3.14;100.00;98558.00;106805;1262;59028;-80
2024/01/26 01:39:04;;;;;;;14.60;4.30;;;;;;;3.19;100.00;98555.75;106775;1256;59788;-79
2024/01/26 01:41:30;;;;;;;9.50;4.30;;;;;;;3.22;100.00;98563.14;106758;1260;59090;-79
2024/01/26 01:43:57;;;;;;;18.60;4.00;;;;;;;3.24;100.00;98558.95;106762;1257;60404;-79
2024/01/26 01:46:23;;;;;;;12.30;4.30;;;;;;;3.25;100.00;98554.63;106760;1257;59047;-80
2024/01/26 01:48:50;;;;;;;13.30;4.00;;;;;;;3.27;100.00;98556.62;106715;1260;60160;-79
2024/01/26 01:51:17;;;;;;;17.50;5.50;;;;;;;3.27;100.00;98551.84;106815;1257;60529;-79
2024/01/26 01:53:43;;;;;;;14.00;4.00;;;;;;;3.29;100.00;98553.55;107910;1257;61086;-79
2024/01/26 01:56:10;;;;;;;14.50;5.00;;;;;;;3.29;100.00;98552.92;106730;1256;60030;-79
2024/01/26 01:58:39;;;;;;;14.60;4.10;;;;;;;3.28;100.00;98553.44;106517;1257;60492;-79
2024/01/26 02:01:05;;;;;;;20.50;6.30;;;;;;;3.29;100.00;98554.70;106630;1257;73830;-79
2024/01/26 02:03:32;;;;;;;9.20;4.40;;;;;;;3.31;100.00;98553.08;106697;1260;60512;-79
2024/01/26 02:05:58;;;;;;;12.50;4.80;;;;;;;3.34;100.00;98554.95;106690;1260;60451;-80
2024/01/26 02:08:25;;;;;;;13.80;4.30;;;;;;;3.35;100.00;98555.79;106713;1261;60540;-79
2024/01/26 02:10:52;;;;;;;11.50;4.40;;;;;;;3.36;100.00;98558.23;106687;1256;59039;-79
2024/01/26 02:13:18;;;;;;;14.80;4.20;;;;;;;3.38;100.00;98557.27;106698;1257;72722;-79
2024/01/26 02:15:45;;;;;;;8.00;3.90;;;;;;;3.38;100.00;98552.23;106685;1260;71080;-79
2024/01/26 02:18:11;;;;;;;11.40;4.10;;;;;;;3.37;100.00;98554.19;106731;1258;73349;-79
2024/01/26 02:20:38;;;;;;;11.20;4.70;;;;;;;3.37;100.00;98551.58;106751;1260;60060;-79
2024/01/26 02:23:04;;;;;;;10.10;3.50;;;;;;;3.39;100.00;98557.13;106727;1261;60526;-79
2024/01/26 02:25:31;;;;;;;8.50;3.80;;;;;;;3.38;100.00;98558.89;106694;1260;60438;-79
2024/01/26 02:27:57;;;;;;;10.40;3.90;;;;;;;3.39;100.00;98560.41;108421;1257;60854;-80
2024/01/26 02:30:25;;;;;;;11.90;5.10;;;;;;;3.41;100.00;98564.52;109084;1260;70599;-79
2024/01/26 02:32:52;;;;;;;9.00;4.50;;;;;;;3.41;100.00;98562.02;109110;1257;58510;-79
2024/01/26 02:35:18;;;;;;;19.30;5.60;;;;;;;3.41;100.00;98563.67;109135;1257;58308;-79
2024/01/26 02:37:44;;;;;;;14.90;5.40;;;;;;;3.39;100.00;98559.67;106949;1260;61184;-79
2024/01/26 02:40:12;;;;;;;13.30;5.00;;;;;;;3.40;100.00;98564.40;106711;1261;61193;-79
2024/01/26 02:42:38;;;;;;;9.10;4.00;;;;;;;3.39;100.00;98560.88;106699;1256;71887;-79
2024/01/26 02:45:05;;;;;;;13.60;4.50;;;;;;;3.41;100.00;98563.27;106639;1256;59760;-79
2024/01/26 02:47:32;;;;;;;11.60;5.00;;;;;;;3.39;100.00;98564.75;107879;1258;59112;-80
2024/01/26 02:49:58;;;;;;;17.60;5.10;;;;;;;3.38;100.00;98564.02;107189;1258;59017;-80
2024/01/26 02:52:25;;;;;;;13.80;4.90;;;;;;;3.40;100.00;98567.33;106738;1261;58926;-79
2024/01/26 02:54:52;;;;;;;13.00;4.30;;;;;;;3.41;100.00;98572.36;106684;1262;59032;-79
2024/01/26 02:57:18;;;;;;;11.50;4.40;;;;;;;3.43;100.00;98574.95;106737;1260;61212;-79
2024/01/26 02:59:45;;;;;;;11.30;4.60;;;;;;;3.43;100.00;98574.21;106709;1260;61132;-79
2024/01/26 03:02:11;;;;;;;11.30;4.90;;;;;;;3.39;100.00;98573.49;106760;1260;61187;-79
2024/01/26 03:04:38;;;;;;;12.30;5.00;;;;;;;3.42;100.00;98572.20;106686;1257;60126;-79
2024/01/26 03:07:04;;;;;;;12.10;5.10;;;;;;;3.43;100.00;98576.56;106644;1257;59151;-79
2024/01/26 03:09:31;;;;;;;14.20;4.50;;;;;;;3.42;100.00;98575.83;106685;1260;59031;-79
2024/01/26 03:11:57;;;;;;;18.50;5.50;;;;;;;3.41;100.00;98582.35;106730;1257;61218;-79
2024/01/26 03:14:24;;;;;;;10.20;4.70;;;;;;;3.39;100.00;98582.64;106716;1258;60541;-79
2024/01/26 03:16:51;;;;;;;14.70;4.40;;;;;;;3.39;100.00;98586.62;107100;1260;71006;-79
2024/01/26 03:19:17;;;;;;;22.20;8.30;;;;;;;3.41;100.00;98586.49;107192;1258;60472;-79
2024/01/26 03:21:44;;;;;;;15.10;4.40;;;;;;;3.40;100.00;98589.27;107132;1257;60486;-79
2024/01/26 03:24:10;;;;;;;10.70;4.70;;;;;;;3.39;100.00;98590.35;107168;1260;61244;-79
2024/01/26 03:26:37;;;;;;;18.70;4.10;;;;;;;3.39;100.00;98589.35;107238;1257;74166;-79
2024/01/26 03:29:04;;;;;;;17.70;5.00;;;;;;;3.39;100.00;98592.45;107159;1256;70986;-79
2024/01/26 03:31:31;;;;;;;13.00;5.10;;;;;;;3.38;100.00;98590.06;106730;1260;71780;-80
2024/01/26 03:33:58;;;;;;;11.40;3.80;;;;;;;3.39;100.00;98601.92;106595;1256;61438;-79
2024/01/26 03:36:24;;;;;;;15.90;4.20;;;;;;;3.38;100.00;98602.77;106835;1256;59224;-79
2024/01/26 03:38:51;;;;;;;16.00;4.80;;;;;;;3.37;100.00;98601.61;109030;1257;72983;-80
2024/01/26 03:41:18;;;;;;;19.10;4.20;;;;;;;3.38;100.00;98601.48;106815;1261;70319;-79
2024/01/26 03:43:45;;;;;;;9.20;4.00;;;;;;;3.37;100.00;98604.66;106822;1257;72906;-80
2024/01/26 03:46:11;;;;;;;10.50;4.70;;;;;;;3.38;100.00;98605.11;106790;1260;60608;-80
2024/01/26 03:48:38;;;;;;;8.80;4.90;;;;;;;3.37;100.00;98604.09;106720;1258;60303;-80
2024/01/26 03:51:04;;;;;;;14.50;4.20;;;;;;;3.38;100.00;98607.63;109100;1256;74320;-80
2024/01/26 03:53:31;;;;;;;9.60;4.60;;;;;;;3.37;100.00;98605.95;109097;1256;58108;-80
2024/01/26 03:55:58;;;;;;;9.00;4.10;;;;;;;3.36;100.00;98611.07;109077;1257;71605;-80
2024/01/26 03:58:24;;;;;;;7.50;3.40;;;;;;;3.36;100.00;98612.09;109119;1256;58310;-80
2024/01/26 04:00:51;;;;;;;10.30;3.70;;;;;;;3.36;100.00;98616.63;109103;1256;58282;-80
2024/01/26 04:03:17;;;;;;;15.60;4.70;;;;;;;3.35;100.00;98614.95;109118;1257;58442;-80
2024/01/26 04:05:44;;;;;;;14.90;4.70;;;;;;;3.31;100.00;98618.31;108418;1257;70620;-80
2024/01/26 04:08:12;;;;;;;16.20;5.30;;;;;;;3.28;100.00;98618.89;109078;1257;72981;-80
2024/01/26 04:10:38;;;;;;;12.30;4.70;;;;;;;3.26;100.00;98618.41;109100;1256;58097;-80
2024/01/26 04:13:05;;;;;;;10.40;4.70;;;;;;;3.28;100.00;98617.45;109107;1256;60370;-79
2024/01/26 04:15:32;;;;;;;11.80;4.50;;;;;;;3.29;100.00;98616.40;109064;1257;73390;-80
2024/01/26 04:17:59;;;;;;;11.20;4.40;;;;;;;3.30;100.00;98619.77;109124;1257;58113;-80
2024/01/26 04:20:25;;;;;;;8.90;4.00;;;;;;;3.30;100.00;98622.61;109076;1257;71525;-80
2024/01/26 04:22:52;;;;;;;13.40;4.90;;;;;;;3.28;100.00;98627.08;109094;1257;58462;-80
2024/01/26 04:25:18;;;;;;;9.40;5.30;;;;;;;3.30;100.00;98626.89;108306;1257;58440;-80
2024/01/26 04:27:44;;;;;;;12.90;5.00;;;;;;;3.32;100.00;98633.30;106639;1256;59865;-80
2024/01/26 04:30:12;;;;;;;13.20;5.10;;;;;;;3.33;100.00;98641.88;106684;1257;59983;-82
2024/01/26 04:32:39;;;;;;;7.50;3.90;;;;;;;3.32;100.00;98645.58;106641;1257;71620;-79
2024/01/26 04:35:06;;;;;;;10.30;3.90;;;;;;;3.28;100.00;98654.36;106692;1256;60092;-80
2024/01/26 04:37:32;;;;;;;8.40;3.50;;;;;;;3.23;100.00;98656.88;106667;1257;59937;-80
2024/01/26 04:39:59;;;;;;;7.40;3.70;;;;;;;3.28;100.00;98655.10;106717;1257;59967;-81
2024/01/26 04:42:25;;;;;;;6.80;3.00;;;;;;;3.29;100.00;98659.21;108009;1257;59284;-79
2024/01/26 04:44:54;;;;;;;9.30;3.70;;;;;;;3.29;100.00;98658.23;109072;1256;58256;-80
2024/01/26 04:47:20;;;;;;;20.70;7.40;;;;;;;3.30;100.00;98658.58;109078;1257;58311;-80
2024/01/26 04:49:47;;;;;;;19.80;8.30;;;;;;;3.30;100.00;98660.56;109082;1258;58108;-80
2024/01/26 04:52:14;;;;;;;15.60;4.40;;;;;;;3.30;100.00;98665.77;108228;1257;59035;-80
2024/01/26 04:54:40;;;;;;;10.40;5.80;;;;;;;3.29;100.00;98663.96;109047;1256;70792;-79
2024/01/26 04:57:07;;;;;;;12.30;5.80;;;;;;;3.26;100.00;98667.56;109075;1257;58116;-80
2024/01/26 04:59:34;;;;;;;13.70;3.80;;;;;;;3.24;100.00;98672.48;109095;1256;58403;-79
2024/01/26 05:02:00;;;;;;;9.50;5.00;;;;;;;3.24;100.00;98670.49;109096;1256;60824;-79
2024/01/26 05:04:27;;;;;;;14.40;4.00;;;;;;;3.25;100.00;98674.88;109079;1256;74513;-80
2024/01/26 05:06:54;;;;;;;10.40;3.70;;;;;;;3.20;100.00;98677.73;109090;1256;58224;-79
2024/01/26 05:09:20;;;;;;;7.70;3.40;;;;;;;3.21;100.00;98679.05;109070;1257;72391;-80
2024/01/26 05:11:47;;;;;;;9.30;5.40;;;;;;;3.22;100.00;98675.58;109067;1256;58410;-80
2024/01/26 05:14:13;;;;;;;7.60;3.90;;;;;;;3.22;100.00;98672.37;109093;1257;58001;-79
2024/01/26 05:16:40;;;;;;;9.50;4.90;;;;;;;3.16;100.00;98680.58;108513;1256;58746;-80
2024/01/26 05:19:06;;;;;;;11.30;4.80;;;;;;;3.20;100.00;98677.98;106875;1257;61246;-79
2024/01/26 05:21:33;;;;;;;15.90;5.40;;;;;;;3.17;100.00;98684.72;106636;1257;71832;-79
2024/01/26 05:23:59;;;;;;;22.30;8.60;;;;;;;3.19;100.00;98686.02;106732;1257;59305;-80
2024/01/26 05:26:26;;;;;;;17.00;6.10;;;;;;;3.18;100.00;98687.72;106737;1256;60005;-80
2024/01/26 05:28:52;;;;;;;17.10;6.10;;;;;;;3.22;100.00;98690.25;106694;1257;73736;-79
2024/01/26 05:31:19;;;;;;;10.50;5.50;;;;;;;3.23;100.00;98695.96;106742;1257;70525;-79
2024/01/26 05:33:45;;;;;;;16.30;6.10;;;;;;;3.25;100.00;98691.31;106684;1257;59425;-79
2024/01/26 05:36:12;;;;;;;10.60;5.90;;;;;;;3.23;100.00;98699.18;106733;1256;60540;-79
2024/01/26 05:38:38;;;;;;;28.70;11.90;;;;;;;3.24;100.00;98697.08;106713;1260;59331;-80
2024/01/26 05:41:05;;;;;;;29.40;12.10;;;;;;;3.21;100.00;98699.12;106683;1257;60057;-79
2024/01/26 05:43:31;;;;;;;29.20;15.60;;;;;;;3.21;100.00;98696.69;106697;1257;60541;-79
2024/01/26 05:45:58;;;;;;;23.20;10.70;;;;;;;3.22;100.00;98700.02;106556;1256;191431;-79
2024/01/26 05:48:25;;;;;;;17.20;7.20;;;;;;;3.23;100.00;98697.25;106665;1256;60013;-80
2024/01/26 05:50:51;;;;;;;16.40;6.00;;;;;;;3.24;100.00;98698.52;106715;1256;60872;-79
2024/01/26 05:53:18;;;;;;;14.30;6.50;;;;;;;3.24;100.00;98699.96;106747;1256;74354;-80
2024/01/26 05:55:44;;;;;;;14.80;5.40;;;;;;;3.25;100.00;98696.47;106711;1257;61197;-80
2024/01/26 05:58:11;;;;;;;15.60;5.90;;;;;;;3.24;100.00;98692.17;106762;1256;73431;-80
2024/01/26 06:00:38;;;;;;;17.80;6.60;;;;;;;3.24;100.00;98688.06;106946;1257;59460;-80
2024/01/26 06:03:04;;;;;;;11.40;4.10;;;;;;;3.14;100.00;98687.17;106944;1256;60297;-79
2024/01/26 06:05:31;;;;;;;9.10;4.70;;;;;;;3.17;100.00;98684.06;106637;1257;59920;-80
2024/01/26 06:07:59;;;;;;;9.80;3.90;;;;;;;3.16;100.00;98685.42;108648;1256;59271;-79
2024/01/26 06:10:25;;;;;;;14.50;3.80;;;;;;;3.17;100.00;98686.86;106777;1257;72861;-80
2024/01/26 06:12:52;;;;;;;5.50;2.50;;;;;;;3.19;100.00;98686.61;108618;1256;58529;-80
2024/01/26 06:15:18;;;;;;;13.20;5.10;;;;;;;3.19;100.00;98695.72;109161;1255;58419;-79
2024/01/26 06:17:46;;;;;;;15.50;5.30;;;;;;;3.20;100.00;98702.39;109140;1255;58878;-80
2024/01/26 06:20:13;;;;;;;15.60;5.10;;;;;;;3.14;100.00;98701.10;109018;1256;69797;-79
2024/01/26 06:22:39;;;;;;;10.30;4.50;;;;;;;3.18;100.00;98701.26;109184;1256;72694;-79
2024/01/26 06:25:06;;;;;;;15.00;6.00;;;;;;;3.14;100.00;98702.05;109194;1255;58379;-79
2024/01/26 06:27:32;;;;;;;19.30;5.30;;;;;;;3.15;100.00;98702.65;108056;1256;60082;-78
2024/01/26 06:29:59;;;;;;;13.20;4.20;;;;;;;3.18;100.00;98704.09;106695;1257;73578;-78
2024/01/26 06:32:26;;;;;;;15.60;7.10;;;;;;;3.19;100.00;98711.17;106718;1257;69593;-79
2024/01/26 06:34:52;;;;;;;11.50;4.30;;;;;;;3.18;100.00;98712.33;107259;1256;71367;-79
2024/01/26 06:37:19;;;;;;;18.90;5.90;;;;;;;3.18;100.00;98712.42;106959;1257;58987;-78
2024/01/26 06:39:45;;;;;;;18.20;6.60;;;;;;;3.22;100.00;98709.25;106679;1256;60267;-78
2024/01/26 06:42:12;;;;;;;20.40;7.90;;;;;;;3.23;100.00;98709.44;106531;1257;60664;-79
2024/01/26 06:44:38;;;;;;;20.10;7.50;;;;;;;3.24;100.00;98710.17;106687;1256;70266;-78
2024/01/26 06:47:05;;;;;;;21.30;8.10;;;;;;;3.25;100.00;98706.64;106778;1256;59945;-78
2024/01/26 06:49:32;;;;;;;20.30;6.90;;;;;;;3.25;100.00;98707.89;106721;1256;60041;-79
2024/01/26 06:51:59;;;;;;;23.00;9.00;;;;;;;3.25;100.00;98705.79;108109;1256;59388;-79
2024/01/26 06:54:26;;;;;;;18.80;6.20;;;;;;;3.25;100.00;98710.73;107042;1257;72887;-79
2024/01/26 06:56:52;;;;;;;13.70;6.60;;;;;;;3.26;100.00;98710.64;107157;1257;59565;-79
2024/01/26 06:59:19;;;;;;;12.80;5.30;;;;;;;3.26;100.00;98709.31;107145;1255;73564;-80
2024/01/26 07:01:45;;;;;;;18.30;6.70;;;;;;;3.27;100.00;98712.81;106933;1255;58898;-79
2024/01/26 07:04:11;;;;;;;16.80;7.40;;;;;;;3.26;100.00;98713.39;106888;1259;60126;-78
2024/01/26 07:06:38;;;;;;;13.10;6.40;;;;;;;3.27;100.00;98716.52;106890;1256;58932;-79
2024/01/26 07:09:05;;;;;;;18.90;5.50;;;;;;;3.28;100.00;98715.81;106944;1256;59529;-79
2024/01/26 07:11:31;;;;;;;11.00;5.10;;;;;;;3.26;100.00;98718.63;106892;1256;59000;-79
2024/01/26 07:13:58;;;;;;;18.20;5.50;;;;;;;3.30;100.00;98722.79;106791;1257;59976;-79
2024/01/26 07:16:25;;;;;;;10.70;4.90;;;;;;;3.33;100.00;98722.83;106909;1256;60034;-79
2024/01/26 07:18:51;;;;;;;14.10;4.70;;;;;;;3.34;100.00;98723.89;107277;1256;60083;-79
2024/01/26 07:21:19;;;;;;;12.40;5.10;;;;;;;3.37;100.00;98723.58;107203;1256;60271;-79
2024/01/26 07:23:45;;;;;;;13.90;6.50;;;;;;;3.42;100.00;98717.67;107211;1256;71055;-79
2024/01/26 07:26:21;;;;;;;17.00;5.80;;;;;;;3.45;100.00;98721.52;107081;1256;60098;-79
2024/01/26 07:28:47;;;;;;;12.20;4.10;;;;;;;3.44;100.00;98724.32;107076;1255;59360;-79
2024/01/26 07:31:14;;;;;;;13.80;4.70;;;;;;;3.47;100.00;98725.48;107168;1256;73853;-79
2024/01/26 07:33:40;;;;;;;10.00;4.70;;;;;;;3.48;100.00;98725.60;107064;1256;60430;-78
2024/01/26 07:36:07;;;;;;;11.30;5.90;;;;;;;3.48;100.00;98727.54;106934;1259;60467;-79
2024/01/26 07:38:34;;;;;;;16.30;6.20;;;;;;;3.48;100.00;98733.14;106958;1256;60431;-78
2024/01/26 07:41:00;;;;;;;11.30;6.30;;;;;;;3.52;100.00;98736.77;107042;1256;59877;-78
2024/01/26 07:43:27;;;;;;;11.70;4.60;;;;;;;3.47;100.00;98734.04;107011;1256;58952;-79
2024/01/26 07:45:53;;;;;;;17.30;4.80;;;;;;;3.44;100.00;98736.61;107040;1256;60317;-78
2024/01/26 07:48:20;;;;;;;11.90;3.70;;;;;;;3.43;100.00;98736.77;106957;1256;60137;-79
2024/01/26 07:50:47;;;;;;;11.50;3.80;;;;;;;3.39;100.00;98740.66;107126;1256;59887;-78
2024/01/26 07:53:14;;;;;;;8.80;4.10;;;;;;;3.39;100.00;98743.80;107037;1257;59725;-78
2024/01/26 07:55:40;;;;;;;12.80;4.70;;;;;;;3.32;100.00;98743.52;107048;1256;72926;-78
2024/01/26 07:58:07;;;;;;;8.00;3.70;;;;;;;3.36;100.00;98736.61;107096;1256;69677;-79
2024/01/26 08:00:33;;;;;;;18.80;8.50;;;;;;;3.34;100.00;98737.95;107049;1255;60716;-79
2024/01/26 08:03:00;;;;;;;15.90;10.50;;;;;;;3.36;100.00;98730.71;107098;1255;60504;-78
2024/01/26 08:05:26;;;;;;;18.80;8.00;;;;;;;3.38;100.00;98731.02;106918;1257;61241;-78
2024/01/26 08:07:53;;;;;;;26.80;11.60;;;;;;;3.42;100.00;98736.33;108837;1255;59210;-79
2024/01/26 08:10:20;;;;;;;29.60;13.20;;;;;;;3.42;100.00;98741.89;109089;1256;69369;-79
2024/01/26 08:12:46;;;;;;;31.60;13.80;;;;;;;3.46;100.00;98737.99;109071;1256;70946;-79
2024/01/26 08:15:13;;;;;;;20.10;10.00;;;;;;;3.47;100.00;98735.72;109109;1256;58569;-79
2024/01/26 08:17:40;;;;;;;19.50;10.50;;;;;;;3.49;100.00;98740.06;109104;1256;58077;-78
2024/01/26 08:20:07;;;;;;;13.50;7.40;;;;;;;3.52;100.00;98736.77;109013;1256;73424;-79
2024/01/26 08:22:34;;;;;;;16.50;6.60;;;;;;;3.56;100.00;98739.56;109132;1255;71510;-79
2024/01/26 08:25:00;;;;;;;16.60;8.50;;;;;;;3.61;100.00;98736.90;109135;1256;58189;-79
2024/01/26 08:27:27;;;;;;;21.00;9.60;;;;;;;3.68;100.00;98739.61;109106;1256;58151;-79
2024/01/26 08:29:53;;;;;;;28.90;12.40;;;;;;;3.76;100.00;98745.37;109101;1255;58333;-79
2024/01/26 08:32:20;;;;;;;27.60;13.40;;;;;;;3.83;100.00;98744.64;109043;1255;58265;-79
2024/01/26 08:34:46;;;;;;;15.80;8.60;;;;;;;3.90;100.00;98736.41;109173;1255;58420;-79
2024/01/26 08:37:13;;;;;;;13.60;6.40;;;;;;;3.94;100.00;98733.70;109154;1255;58241;-79
2024/01/26 08:39:43;;;;;;;17.20;8.10;;;;;;;3.98;100.00;98737.05;109152;1255;58230;-79
2024/01/26 08:42:09;;;;;;;12.40;7.70;;;;;;;4.05;100.00;98739.52;109061;1255;59397;-78
2024/01/26 08:44:36;;;;;;;35.60;14.60;;;;;;;4.07;100.00;98745.48;109079;1256;72302;-79
2024/01/26 08:47:03;;;;;;;22.80;11.10;;;;;;;4.10;100.00;98748.35;109156;1255;58178;-79
2024/01/26 08:49:30;;;;;;;14.50;7.50;;;;;;;4.10;100.00;98751.19;109158;1255;72385;-79
2024/01/26 08:51:57;;;;;;;17.50;7.40;;;;;;;4.11;100.00;98750.70;109083;1256;58585;-79
2024/01/26 08:54:24;;;;;;;71.00;36.40;;;;;;;4.15;100.00;98755.80;108191;1255;60233;-79
2024/01/26 08:56:51;;;;;;;51.10;25.20;;;;;;;4.21;100.00;98761.11;109131;1256;72658;-79
2024/01/26 08:59:17;;;;;;;24.00;11.80;;;;;;;4.18;100.00;98764.92;109062;1256;71484;-79
2024/01/26 09:01:45;;;;;;;38.70;17.30;;;;;;;4.20;100.00;98760.59;109120;1255;58379;-79
2024/01/26 09:04:12;;;;;;;15.60;7.60;;;;;;;4.20;100.00;98756.46;109069;1255;58363;-79
2024/01/26 09:06:39;;;;;;;15.60;7.90;;;;;;;4.26;100.00;98751.08;109128;1257;58454;-79
2024/01/26 09:09:06;;;;;;;17.70;7.80;;;;;;;4.35;100.00;98747.67;107591;1256;60551;-78
2024/01/26 09:11:33;;;;;;;22.00;12.40;;;;;;;4.37;100.00;98745.86;107736;1256;70504;-80
2024/01/26 09:13:59;;;;;;;25.00;12.40;;;;;;;4.42;100.00;98745.30;108983;1255;58564;-79
2024/01/26 09:16:26;;;;;;;17.10;10.90;;;;;;;4.43;100.00;98747.34;106768;1255;61326;-78
2024/01/26 09:18:53;;;;;;;15.40;6.60;;;;;;;4.47;100.00;98752.08;106701;1256;58913;-79
2024/01/26 09:21:19;;;;;;;15.90;7.60;;;;;;;4.47;100.00;98749.09;106874;1255;59514;-78
2024/01/26 09:23:46;;;;;;;11.40;6.30;;;;;;;4.50;100.00;98744.19;106677;1255;70931;-79
2024/01/26 09:26:13;;;;;;;14.70;7.20;;;;;;;4.55;100.00;98733.54;107478;1256;73249;-79
2024/01/26 09:28:39;;;;;;;12.10;4.70;;;;;;;4.59;100.00;98731.81;109045;1256;58193;-79
2024/01/26 09:31:06;;;;;;;11.00;5.00;;;;;;;4.60;100.00;98731.35;109118;1256;58321;-79
2024/01/26 09:33:33;;;;;;;189.70;72.40;;;;;;;4.60;100.00;98731.61;108319;1256;74538;-79
2024/01/26 09:35:59;;;;;;;54.70;22.10;;;;;;;4.52;100.00;98734.34;106977;1256;72464;-79
2024/01/26 09:38:26;;;;;;;58.20;25.10;;;;;;;4.50;100.00;98730.43;107029;1256;61218;-79
2024/01/26 09:40:52;;;;;;;96.70;41.70;;;;;;;4.53;100.00;98732.77;107331;1256;59432;-79
2024/01/26 09:43:19;;;;;;;49.90;21.50;;;;;;;4.56;100.00;98735.71;108530;1255;58869;-79
2024/01/26 09:45:45;;;;;;;25.10;12.90;;;;;;;4.56;100.00;98733.19;106954;1256;73185;-78
2024/01/26 09:48:12;;;;;;;18.20;8.80;;;;;;;4.56;100.00;98729.14;109123;1255;69671;-79
2024/01/26 09:50:39;;;;;;;15.50;8.00;;;;;;;4.56;100.00;98727.82;109004;1255;58243;-79
2024/01/26 09:53:05;;;;;;;13.20;7.50;;;;;;;4.59;100.00;98727.28;109085;1256;58154;-79
2024/01/26 09:55:32;;;;;;;12.60;6.50;;;;;;;4.61;100.00;98723.74;108999;1259;58118;-79
2024/01/26 09:57:59;;;;;;;19.60;8.50;;;;;;;4.65;100.00;98722.55;107424;1256;73849;-79
2024/01/26 10:00:26;;;;;;;15.30;4.70;;;;;;;4.71;100.00;98719.01;106984;1256;71262;-79
2024/01/26 10:02:53;;;;;;;14.70;7.70;;;;;;;4.77;100.00;98718.27;107035;1256;73229;-79
2024/01/26 10:05:19;;;;;;;37.50;16.90;;;;;;;4.79;100.00;98715.98;106905;1255;58998;-78
2024/01/26 10:07:46;;;;;;;16.20;8.00;;;;;;;4.81;100.00;98720.49;107081;1256;60629;-80
2024/01/26 10:10:13;;;;;;;23.90;11.80;;;;;;;4.80;100.00;98711.59;107110;1256;58977;-80
2024/01/26 10:12:42;;;;;;;11.90;6.20;;;;;;;4.77;100.00;98707.20;107223;1255;70823;-79
2024/01/26 10:15:10;;;;;;;70.20;31.20;;;;;;;4.78;100.00;98705.05;106994;1255;71812;-79
2024/01/26 10:17:37;;;;;;;49.70;20.50;;;;;;;4.74;100.00;98703.65;107160;1255;60080;-79
2024/01/26 10:20:15;;;;;;;74.60;31.50;;;;;;;4.74;100.00;98697.08;107249;1256;61195;-79
2024/01/26 10:22:42;;;;;;;63.00;27.70;;;;;;;4.75;100.00;98697.23;107047;1256;73730;-79
2024/01/26 10:25:09;;;;;;;54.10;23.00;;;;;;;4.83;100.00;98696.52;109209;1255;71180;-79
2024/01/26 10:27:36;;;;;;;27.70;12.70;;;;;;;4.89;100.00;98697.14;109068;1256;71831;-79
2024/01/26 10:30:03;;;;;;;38.70;18.60;;;;;;;4.98;100.00;98695.45;109116;1255;59231;-80
2024/01/26 10:32:30;;;;;;;64.20;31.40;;;;;;;5.06;100.00;98691.80;109061;1256;59332;-79
2024/01/26 10:34:58;;;;;;;24.10;13.50;;;;;;;5.11;100.00;98690.10;109180;1255;73756;-79
2024/01/26 10:37:29;;;;;;;31.80;14.30;;;;;;;5.12;100.00;98688.23;108997;1255;69431;-79
2024/01/26 10:39:56;;;;;;;27.80;12.90;;;;;;;5.15;100.00;98682.95;109143;1255;72549;-79
2024/01/26 10:42:23;;;;;;;31.60;15.70;;;;;;;5.14;100.00;98679.73;109115;1256;59030;-79
2024/01/26 10:44:51;;;;;;;23.00;10.90;;;;;;;5.19;100.00;98676.39;109110;1255;60083;-79
2024/01/26 10:47:18;;;;;;;31.30;15.00;;;;;;;5.25;100.00;98674.73;109021;1256;74100;-79
2024/01/26 10:49:51;;;;;;;25.30;14.60;;;;;;;5.33;100.00;98667.55;108644;1256;69938;-79
2024/01/26 10:52:20;;;;;;;18.80;9.30;;;;;;;5.46;100.00;98666.07;106700;1256;72919;-79
2024/01/26 10:54:47;;;;;;;;;;;;;;;5.53;100.00;98664.79;106479;1259;60531;-79
2024/01/26 10:57:14;;;;;;;25.20;15.40;;;;;;;5.62;100.00;98662.04;106560;1256;60149;-79
2024/01/26 10:59:43;;;;;;;27.80;17.50;;;;;;;5.68;100.00;98656.91;106736;1256;74830;-79
2024/01/26 11:02:13;;;;;;;28.90;15.30;;;;;;;5.65;100.00;98653.52;106757;1257;70935;-79
2024/01/26 11:04:42;;;;;;;22.80;12.90;;;;;;;5.55;100.00;98647.31;106426;1255;71824;-79
2024/01/26 11:07:09;;;;;;;18.00;13.50;;;;;;;5.48;100.00;98642.39;106850;1255;59082;-79
2024/01/26 11:09:38;;;;;;;20.00;10.70;;;;;;;5.43;100.00;98638.77;106565;1255;60530;-79
2024/01/26 11:12:08;;;;;;;15.70;9.20;;;;;;;5.45;100.00;98637.91;106647;1256;73353;-79
2024/01/26 11:14:35;;;;;;;12.60;6.70;;;;;;;5.44;100.00;98635.73;106586;1259;70473;-79